sensor_id;sensor_type;location;lat;lon;timestamp;P1;durP1;ratioP1;P2;durP2;ratioP2
17169;SDS011;8700;48.222;16.342;2023-08-24T00:01:33;12.93;;;11.90;;
17169;SDS011;8700;48.222;16.342;2023-08-24T00:04:54;12.27;;;11.38;;
17169;SDS011;8700;48.222;16.342;2023-08-24T00:08:17;13.52;;;12.38;;
17169;SDS011;8700;48.222;16.342;2023-08-24T00:11:38;14.02;;;12.85;;
17169;SDS011;8700;48.222;16.342;2023-08-24T00:15:00;13.00;;;12.10;;
17169;SDS011;8700;48.222;16.342;2023-08-24T00:18:22;13.23;;;12.23;;
17169;SDS011;8700;48.222;16.342;2023-08-24T00:21:43;14.02;;;12.88;;
17169;SDS011;8700;48.222;16.342;2023-08-24T00:25:06;13.10;;;11.90;;
17169;SDS011;8700;48.222;16.342;2023-08-24T00:28:29;14.48;;;13.13;;
17169;SDS011;8700;48.222;16.342;2023-08-24T00:31:50;14.10;;;12.90;;
17169;SDS011;8700;48.222;16.342;2023-08-24T00:35:11;13.05;;;12.00;;
17169;SDS011;8700;48.222;16.342;2023-08-24T00:38:32;13.32;;;12.43;;
17169;SDS011;8700;48.222;16.342;2023-08-24T00:41:56;13.32;;;12.20;;
17169;SDS011;8700;48.222;16.342;2023-08-24T00:45:17;13.20;;;11.88;;
17169;SDS011;8700;48.222;16.342;2023-08-24T00:48:39;14.65;;;13.55;;
17169;SDS011;8700;48.222;16.342;2023-08-24T00:52:01;14.63;;;13.27;;
17169;SDS011;8700;48.222;16.342;2023-08-24T00:55:23;12.57;;;11.68;;
17169;SDS011;8700;48.222;16.342;2023-08-24T00:58:46;13.30;;;12.05;;
17169;SDS011;8700;48.222;16.342;2023-08-24T01:02:08;13.27;;;12.02;;
17169;SDS011;8700;48.222;16.342;2023-08-24T01:05:30;12.98;;;11.98;;
17169;SDS011;8700;48.222;16.342;2023-08-24T01:08:52;13.10;;;12.10;;
17169;SDS011;8700;48.222;16.342;2023-08-24T01:12:15;13.20;;;12.07;;
17169;SDS011;8700;48.222;16.342;2023-08-24T01:15:48;13.57;;;12.48;;
17169;SDS011;8700;48.222;16.342;2023-08-24T01:19:20;12.85;;;11.85;;
17169;SDS011;8700;48.222;16.342;2023-08-24T01:22:49;14.18;;;13.15;;
17169;SDS011;8700;48.222;16.342;2023-08-24T01:26:20;14.18;;;13.18;;
17169;SDS011;8700;48.222;16.342;2023-08-24T01:29:41;13.68;;;12.57;;
17169;SDS011;8700;48.222;16.342;2023-08-24T01:33:02;13.75;;;12.65;;
17169;SDS011;8700;48.222;16.342;2023-08-24T01:36:24;13.15;;;12.23;;
17169;SDS011;8700;48.222;16.342;2023-08-24T01:39:46;13.75;;;12.68;;
17169;SDS011;8700;48.222;16.342;2023-08-24T01:43:29;14.32;;;13.07;;
17169;SDS011;8700;48.222;16.342;2023-08-24T01:46:53;13.48;;;12.32;;
17169;SDS011;8700;48.222;16.342;2023-08-24T01:50:16;14.02;;;12.80;;
17169;SDS011;8700;48.222;16.342;2023-08-24T01:53:38;12.40;;;11.45;;
17169;SDS011;8700;48.222;16.342;2023-08-24T01:57:00;13.57;;;12.57;;
17169;SDS011;8700;48.222;16.342;2023-08-24T02:00:23;13.10;;;12.10;;
17169;SDS011;8700;48.222;16.342;2023-08-24T02:03:44;13.60;;;12.50;;
17169;SDS011;8700;48.222;16.342;2023-08-24T02:07:06;13.98;;;12.98;;
17169;SDS011;8700;48.222;16.342;2023-08-24T02:10:27;12.77;;;11.60;;
17169;SDS011;8700;48.222;16.342;2023-08-24T02:13:48;13.73;;;12.77;;
17169;SDS011;8700;48.222;16.342;2023-08-24T02:17:10;13.90;;;12.85;;
17169;SDS011;8700;48.222;16.342;2023-08-24T02:20:34;13.73;;;12.32;;
17169;SDS011;8700;48.222;16.342;2023-08-24T02:23:56;13.50;;;12.40;;
17169;SDS011;8700;48.222;16.342;2023-08-24T02:27:17;14.07;;;13.18;;
17169;SDS011;8700;48.222;16.342;2023-08-24T02:30:38;13.98;;;12.80;;
17169;SDS011;8700;48.222;16.342;2023-08-24T02:34:01;13.05;;;12.00;;
17169;SDS011;8700;48.222;16.342;2023-08-24T02:37:22;14.63;;;12.48;;
17169;SDS011;8700;48.222;16.342;2023-08-24T02:40:43;13.43;;;12.38;;
17169;SDS011;8700;48.222;16.342;2023-08-24T02:44:04;14.23;;;13.15;;
17169;SDS011;8700;48.222;16.342;2023-08-24T02:47:25;15.25;;;13.93;;
17169;SDS011;8700;48.222;16.342;2023-08-24T02:50:48;12.60;;;11.60;;
17169;SDS011;8700;48.222;16.342;2023-08-24T02:54:09;13.90;;;12.70;;
17169;SDS011;8700;48.222;16.342;2023-08-24T02:57:30;14.48;;;13.32;;
17169;SDS011;8700;48.222;16.342;2023-08-24T03:00:51;14.25;;;13.15;;
17169;SDS011;8700;48.222;16.342;2023-08-24T03:04:12;13.43;;;12.32;;
17169;SDS011;8700;48.222;16.342;2023-08-24T03:07:35;14.48;;;13.32;;
17169;SDS011;8700;48.222;16.342;2023-08-24T03:10:56;15.45;;;14.07;;
17169;SDS011;8700;48.222;16.342;2023-08-24T03:14:18;14.45;;;13.32;;
17169;SDS011;8700;48.222;16.342;2023-08-24T03:17:39;14.60;;;13.50;;
17169;SDS011;8700;48.222;16.342;2023-08-24T03:21:01;14.60;;;13.50;;
17169;SDS011;8700;48.222;16.342;2023-08-24T03:24:23;14.27;;;13.27;;
17169;SDS011;8700;48.222;16.342;2023-08-24T03:27:44;14.65;;;13.65;;
17169;SDS011;8700;48.222;16.342;2023-08-24T03:31:06;13.73;;;12.68;;
17169;SDS011;8700;48.222;16.342;2023-08-24T03:34:27;14.77;;;13.57;;
17169;SDS011;8700;48.222;16.342;2023-08-24T03:37:49;14.68;;;13.57;;
17169;SDS011;8700;48.222;16.342;2023-08-24T03:41:11;14.48;;;13.48;;
17169;SDS011;8700;48.222;16.342;2023-08-24T03:44:32;14.10;;;13.10;;
17169;SDS011;8700;48.222;16.342;2023-08-24T03:47:54;15.73;;;14.50;;
17169;SDS011;8700;48.222;16.342;2023-08-24T03:51:15;15.45;;;14.27;;
17169;SDS011;8700;48.222;16.342;2023-08-24T03:54:36;15.60;;;14.43;;
17169;SDS011;8700;48.222;16.342;2023-08-24T03:57:59;14.38;;;13.38;;
17169;SDS011;8700;48.222;16.342;2023-08-24T04:01:21;16.45;;;15.10;;
17169;SDS011;8700;48.222;16.342;2023-08-24T04:04:42;16.83;;;15.52;;
17169;SDS011;8700;48.222;16.342;2023-08-24T04:08:04;14.07;;;13.00;;
17169;SDS011;8700;48.222;16.342;2023-08-24T04:11:26;15.25;;;14.18;;
17169;SDS011;8700;48.222;16.342;2023-08-24T04:14:49;15.07;;;13.95;;
17169;SDS011;8700;48.222;16.342;2023-08-24T04:18:11;14.93;;;13.88;;
17169;SDS011;8700;48.222;16.342;2023-08-24T04:21:32;14.82;;;13.60;;
17169;SDS011;8700;48.222;16.342;2023-08-24T04:24:53;15.63;;;14.20;;
17169;SDS011;8700;48.222;16.342;2023-08-24T04:28:15;16.27;;;15.02;;
17169;SDS011;8700;48.222;16.342;2023-08-24T04:31:39;16.67;;;15.27;;
17169;SDS011;8700;48.222;16.342;2023-08-24T04:35:01;15.88;;;14.48;;
17169;SDS011;8700;48.222;16.342;2023-08-24T04:38:23;17.23;;;15.70;;
17169;SDS011;8700;48.222;16.342;2023-08-24T04:41:44;16.33;;;14.90;;
17169;SDS011;8700;48.222;16.342;2023-08-24T04:45:06;17.13;;;15.82;;
17169;SDS011;8700;48.222;16.342;2023-08-24T04:48:30;17.10;;;15.60;;
17169;SDS011;8700;48.222;16.342;2023-08-24T04:51:53;16.55;;;15.32;;
17169;SDS011;8700;48.222;16.342;2023-08-24T04:55:14;15.90;;;14.68;;
17169;SDS011;8700;48.222;16.342;2023-08-24T04:58:35;15.65;;;14.30;;
17169;SDS011;8700;48.222;16.342;2023-08-24T05:01:57;15.82;;;14.65;;
17169;SDS011;8700;48.222;16.342;2023-08-24T05:05:19;22.23;;;20.45;;
17169;SDS011;8700;48.222;16.342;2023-08-24T05:08:40;17.92;;;16.23;;
17169;SDS011;8700;48.222;16.342;2023-08-24T05:12:02;17.30;;;15.93;;
17169;SDS011;8700;48.222;16.342;2023-08-24T05:15:23;17.80;;;16.38;;
17169;SDS011;8700;48.222;16.342;2023-08-24T05:18:44;17.90;;;16.40;;
17169;SDS011;8700;48.222;16.342;2023-08-24T05:22:08;17.05;;;15.50;;
17169;SDS011;8700;48.222;16.342;2023-08-24T05:25:29;17.42;;;16.00;;
17169;SDS011;8700;48.222;16.342;2023-08-24T05:28:52;17.73;;;16.33;;
17169;SDS011;8700;48.222;16.342;2023-08-24T05:32:13;19.08;;;17.42;;
17169;SDS011;8700;48.222;16.342;2023-08-24T05:35:35;18.55;;;17.15;;
17169;SDS011;8700;48.222;16.342;2023-08-24T05:38:57;20.20;;;18.40;;
17169;SDS011;8700;48.222;16.342;2023-08-24T05:42:18;19.42;;;17.92;;
17169;SDS011;8700;48.222;16.342;2023-08-24T05:45:40;19.45;;;17.75;;
17169;SDS011;8700;48.222;16.342;2023-08-24T05:49:03;19.60;;;17.77;;
17169;SDS011;8700;48.222;16.342;2023-08-24T05:52:25;19.15;;;17.60;;
17169;SDS011;8700;48.222;16.342;2023-08-24T05:55:47;20.73;;;19.02;;
17169;SDS011;8700;48.222;16.342;2023-08-24T05:59:09;19.05;;;17.45;;
17169;SDS011;8700;48.222;16.342;2023-08-24T06:02:30;19.08;;;17.67;;
17169;SDS011;8700;48.222;16.342;2023-08-24T06:05:51;20.17;;;18.33;;
17169;SDS011;8700;48.222;16.342;2023-08-24T06:09:12;20.45;;;18.70;;
17169;SDS011;8700;48.222;16.342;2023-08-24T06:12:35;19.45;;;17.83;;
17169;SDS011;8700;48.222;16.342;2023-08-24T06:15:57;19.08;;;17.58;;
17169;SDS011;8700;48.222;16.342;2023-08-24T06:19:18;20.42;;;18.73;;
17169;SDS011;8700;48.222;16.342;2023-08-24T06:22:39;17.17;;;15.90;;
17169;SDS011;8700;48.222;16.342;2023-08-24T06:26:00;18.00;;;16.67;;
17169;SDS011;8700;48.222;16.342;2023-08-24T06:29:24;17.85;;;16.55;;
17169;SDS011;8700;48.222;16.342;2023-08-24T06:32:45;18.10;;;16.70;;
17169;SDS011;8700;48.222;16.342;2023-08-24T06:36:06;18.05;;;16.75;;
17169;SDS011;8700;48.222;16.342;2023-08-24T06:39:28;18.48;;;17.08;;
17169;SDS011;8700;48.222;16.342;2023-08-24T06:42:49;18.67;;;17.30;;
17169;SDS011;8700;48.222;16.342;2023-08-24T06:46:12;18.60;;;16.63;;
17169;SDS011;8700;48.222;16.342;2023-08-24T06:49:33;18.92;;;17.50;;
17169;SDS011;8700;48.222;16.342;2023-08-24T06:52:54;17.08;;;15.77;;
17169;SDS011;8700;48.222;16.342;2023-08-24T06:56:15;31.83;;;18.15;;
17169;SDS011;8700;48.222;16.342;2023-08-24T06:59:37;21.33;;;19.20;;
17169;SDS011;8700;48.222;16.342;2023-08-24T07:03:00;19.13;;;17.42;;
17169;SDS011;8700;48.222;16.342;2023-08-24T07:06:21;17.70;;;16.25;;
17169;SDS011;8700;48.222;16.342;2023-08-24T07:09:42;17.83;;;16.42;;
17169;SDS011;8700;48.222;16.342;2023-08-24T07:13:04;17.85;;;16.17;;
17169;SDS011;8700;48.222;16.342;2023-08-24T07:16:27;17.45;;;16.08;;
17169;SDS011;8700;48.222;16.342;2023-08-24T07:19:50;18.95;;;17.30;;
17169;SDS011;8700;48.222;16.342;2023-08-24T07:23:11;17.35;;;15.98;;
17169;SDS011;8700;48.222;16.342;2023-08-24T07:26:32;18.85;;;16.92;;
17169;SDS011;8700;48.222;16.342;2023-08-24T07:29:54;19.27;;;17.67;;
17169;SDS011;8700;48.222;16.342;2023-08-24T07:33:15;17.98;;;16.48;;
17169;SDS011;8700;48.222;16.342;2023-08-24T07:36:37;17.38;;;16.08;;
17169;SDS011;8700;48.222;16.342;2023-08-24T07:39:59;17.23;;;15.98;;
17169;SDS011;8700;48.222;16.342;2023-08-24T07:43:20;17.25;;;15.93;;
17169;SDS011;8700;48.222;16.342;2023-08-24T07:46:41;19.20;;;17.58;;
17169;SDS011;8700;48.222;16.342;2023-08-24T07:50:03;19.60;;;18.00;;
17169;SDS011;8700;48.222;16.342;2023-08-24T07:53:27;19.80;;;18.20;;
17169;SDS011;8700;48.222;16.342;2023-08-24T07:56:48;18.17;;;16.65;;
17169;SDS011;8700;48.222;16.342;2023-08-24T08:00:10;18.05;;;16.63;;
17169;SDS011;8700;48.222;16.342;2023-08-24T08:03:32;19.90;;;18.30;;
17169;SDS011;8700;48.222;16.342;2023-08-24T08:06:55;20.02;;;18.15;;
17169;SDS011;8700;48.222;16.342;2023-08-24T08:10:17;17.65;;;16.00;;
17169;SDS011;8700;48.222;16.342;2023-08-24T08:13:40;15.60;;;14.50;;
17169;SDS011;8700;48.222;16.342;2023-08-24T08:17:01;17.95;;;15.57;;
17169;SDS011;8700;48.222;16.342;2023-08-24T08:20:22;18.10;;;16.52;;
17169;SDS011;8700;48.222;16.342;2023-08-24T08:23:43;17.88;;;16.48;;
17169;SDS011;8700;48.222;16.342;2023-08-24T08:27:06;15.73;;;14.55;;
17169;SDS011;8700;48.222;16.342;2023-08-24T08:30:27;19.75;;;17.67;;
17169;SDS011;8700;48.222;16.342;2023-08-24T08:33:48;14.98;;;13.77;;
17169;SDS011;8700;48.222;16.342;2023-08-24T08:37:10;15.27;;;13.73;;
17169;SDS011;8700;48.222;16.342;2023-08-24T08:40:31;13.85;;;12.48;;
17169;SDS011;8700;48.222;16.342;2023-08-24T08:43:54;14.15;;;12.88;;
17169;SDS011;8700;48.222;16.342;2023-08-24T08:47:15;10.75;;;9.88;;
17169;SDS011;8700;48.222;16.342;2023-08-24T08:50:38;13.10;;;11.98;;
17169;SDS011;8700;48.222;16.342;2023-08-24T08:53:59;12.02;;;10.95;;
17169;SDS011;8700;48.222;16.342;2023-08-24T08:57:21;11.95;;;11.05;;
17169;SDS011;8700;48.222;16.342;2023-08-24T09:00:46;18.85;;;13.15;;
17169;SDS011;8700;48.222;16.342;2023-08-24T09:04:08;11.15;;;10.35;;
17169;SDS011;8700;48.222;16.342;2023-08-24T09:07:30;16.23;;;12.25;;
17169;SDS011;8700;48.222;16.342;2023-08-24T09:10:53;24.17;;;15.15;;
17169;SDS011;8700;48.222;16.342;2023-08-24T09:14:14;12.18;;;11.32;;
17169;SDS011;8700;48.222;16.342;2023-08-24T09:17:37;14.18;;;11.90;;
17169;SDS011;8700;48.222;16.342;2023-08-24T09:21:07;12.85;;;11.73;;
17169;SDS011;8700;48.222;16.342;2023-08-24T09:24:29;12.15;;;10.93;;
17169;SDS011;8700;48.222;16.342;2023-08-24T09:27:57;12.52;;;11.13;;
17169;SDS011;8700;48.222;16.342;2023-08-24T09:31:19;12.05;;;10.73;;
17169;SDS011;8700;48.222;16.342;2023-08-24T09:34:41;12.73;;;11.00;;
17169;SDS011;8700;48.222;16.342;2023-08-24T09:41:40;10.60;;;9.90;;
17169;SDS011;8700;48.222;16.342;2023-08-24T09:45:02;10.40;;;9.63;;
17169;SDS011;8700;48.222;16.342;2023-08-24T09:48:24;11.52;;;10.63;;
17169;SDS011;8700;48.222;16.342;2023-08-24T09:51:47;31.70;;;14.35;;
17169;SDS011;8700;48.222;16.342;2023-08-24T09:55:09;14.50;;;11.45;;
17169;SDS011;8700;48.222;16.342;2023-08-24T09:58:32;25.63;;;12.43;;
17169;SDS011;8700;48.222;16.342;2023-08-24T10:01:54;11.77;;;10.82;;
17169;SDS011;8700;48.222;16.342;2023-08-24T10:05:17;12.73;;;10.15;;
17169;SDS011;8700;48.222;16.342;2023-08-24T10:08:43;34.42;;;13.90;;
17169;SDS011;8700;48.222;16.342;2023-08-24T10:12:10;10.70;;;9.77;;
17169;SDS011;8700;48.222;16.342;2023-08-24T10:15:35;21.13;;;10.82;;
17169;SDS011;8700;48.222;16.342;2023-08-24T10:19:05;9.75;;;9.05;;
17169;SDS011;8700;48.222;16.342;2023-08-24T10:22:27;10.73;;;9.90;;
17169;SDS011;8700;48.222;16.342;2023-08-24T10:25:51;10.63;;;9.55;;
17169;SDS011;8700;48.222;16.342;2023-08-24T10:29:13;11.35;;;10.15;;
17169;SDS011;8700;48.222;16.342;2023-08-24T10:32:36;10.65;;;9.77;;
17169;SDS011;8700;48.222;16.342;2023-08-24T10:35:58;10.63;;;9.93;;
17169;SDS011;8700;48.222;16.342;2023-08-24T10:39:26;11.45;;;10.55;;
17169;SDS011;8700;48.222;16.342;2023-08-24T10:42:49;14.35;;;11.18;;
17169;SDS011;8700;48.222;16.342;2023-08-24T10:46:13;9.85;;;9.07;;
17169;SDS011;8700;48.222;16.342;2023-08-24T10:49:35;10.68;;;9.70;;
17169;SDS011;8700;48.222;16.342;2023-08-24T10:52:58;9.98;;;9.15;;
17169;SDS011;8700;48.222;16.342;2023-08-24T10:56:19;10.38;;;9.57;;
17169;SDS011;8700;48.222;16.342;2023-08-24T10:59:42;11.18;;;10.27;;
17169;SDS011;8700;48.222;16.342;2023-08-24T11:03:03;10.50;;;9.68;;
17169;SDS011;8700;48.222;16.342;2023-08-24T11:06:25;10.98;;;10.27;;
17169;SDS011;8700;48.222;16.342;2023-08-24T11:09:47;10.73;;;9.90;;
17169;SDS011;8700;48.222;16.342;2023-08-24T11:13:10;11.10;;;10.13;;
17169;SDS011;8700;48.222;16.342;2023-08-24T11:16:40;10.60;;;9.80;;
17169;SDS011;8700;48.222;16.342;2023-08-24T11:20:02;10.10;;;9.48;;
17169;SDS011;8700;48.222;16.342;2023-08-24T11:23:25;10.48;;;9.73;;
17169;SDS011;8700;48.222;16.342;2023-08-24T11:26:46;11.15;;;10.10;;
17169;SDS011;8700;48.222;16.342;2023-08-24T11:30:09;11.85;;;10.82;;
17169;SDS011;8700;48.222;16.342;2023-08-24T11:33:32;11.27;;;10.00;;
17169;SDS011;8700;48.222;16.342;2023-08-24T11:36:55;9.95;;;9.18;;
17169;SDS011;8700;48.222;16.342;2023-08-24T11:40:16;11.35;;;10.40;;
17169;SDS011;8700;48.222;16.342;2023-08-24T11:43:38;11.85;;;10.90;;
17169;SDS011;8700;48.222;16.342;2023-08-24T11:46:59;9.88;;;9.25;;
17169;SDS011;8700;48.222;16.342;2023-08-24T11:50:22;10.30;;;9.50;;
17169;SDS011;8700;48.222;16.342;2023-08-24T11:53:44;10.75;;;9.77;;
17169;SDS011;8700;48.222;16.342;2023-08-24T11:57:06;10.23;;;9.35;;
17169;SDS011;8700;48.222;16.342;2023-08-24T12:00:28;11.38;;;10.57;;
17169;SDS011;8700;48.222;16.342;2023-08-24T12:03:50;12.30;;;10.93;;
17169;SDS011;8700;48.222;16.342;2023-08-24T12:07:12;10.95;;;10.05;;
17169;SDS011;8700;48.222;16.342;2023-08-24T12:10:35;10.57;;;9.88;;
17169;SDS011;8700;48.222;16.342;2023-08-24T12:14:01;11.18;;;10.18;;
17169;SDS011;8700;48.222;16.342;2023-08-24T12:17:22;10.80;;;9.85;;
17169;SDS011;8700;48.222;16.342;2023-08-24T12:20:44;11.35;;;10.55;;
17169;SDS011;8700;48.222;16.342;2023-08-24T12:24:06;11.38;;;10.55;;
17169;SDS011;8700;48.222;16.342;2023-08-24T12:27:28;10.98;;;10.18;;
17169;SDS011;8700;48.222;16.342;2023-08-24T12:30:50;10.63;;;9.93;;
17169;SDS011;8700;48.222;16.342;2023-08-24T12:34:14;12.02;;;11.15;;
17169;SDS011;8700;48.222;16.342;2023-08-24T12:37:35;12.23;;;11.02;;
17169;SDS011;8700;48.222;16.342;2023-08-24T12:40:58;22.27;;;12.57;;
17169;SDS011;8700;48.222;16.342;2023-08-24T12:44:20;11.23;;;10.27;;
17169;SDS011;8700;48.222;16.342;2023-08-24T12:47:41;11.80;;;10.90;;
17169;SDS011;8700;48.222;16.342;2023-08-24T12:51:02;11.32;;;10.32;;
17169;SDS011;8700;48.222;16.342;2023-08-24T12:54:23;11.90;;;10.75;;
17169;SDS011;8700;48.222;16.342;2023-08-24T12:57:46;11.13;;;10.05;;
17169;SDS011;8700;48.222;16.342;2023-08-24T13:01:07;10.07;;;9.43;;
17169;SDS011;8700;48.222;16.342;2023-08-24T13:04:29;15.75;;;11.98;;
17169;SDS011;8700;48.222;16.342;2023-08-24T13:07:51;15.68;;;11.40;;
17169;SDS011;8700;48.222;16.342;2023-08-24T13:11:12;12.48;;;11.07;;
17169;SDS011;8700;48.222;16.342;2023-08-24T13:14:35;11.60;;;10.52;;
17169;SDS011;8700;48.222;16.342;2023-08-24T13:17:56;10.45;;;9.63;;
17169;SDS011;8700;48.222;16.342;2023-08-24T13:21:17;10.85;;;10.07;;
17169;SDS011;8700;48.222;16.342;2023-08-24T13:24:38;13.55;;;12.13;;
17169;SDS011;8700;48.222;16.342;2023-08-24T13:27:59;10.52;;;9.70;;
17169;SDS011;8700;48.222;16.342;2023-08-24T13:31:22;11.50;;;10.50;;
17169;SDS011;8700;48.222;16.342;2023-08-24T13:34:43;11.70;;;10.45;;
17169;SDS011;8700;48.222;16.342;2023-08-24T13:38:04;11.88;;;10.10;;
17169;SDS011;8700;48.222;16.342;2023-08-24T13:41:25;11.90;;;10.80;;
17169;SDS011;8700;48.222;16.342;2023-08-24T13:44:47;11.13;;;10.23;;
17169;SDS011;8700;48.222;16.342;2023-08-24T13:48:09;11.68;;;10.38;;
17169;SDS011;8700;48.222;16.342;2023-08-24T13:51:30;11.52;;;10.63;;
17169;SDS011;8700;48.222;16.342;2023-08-24T13:54:51;11.38;;;10.35;;
17169;SDS011;8700;48.222;16.342;2023-08-24T13:58:13;11.30;;;10.27;;
17169;SDS011;8700;48.222;16.342;2023-08-24T14:01:34;11.40;;;10.50;;
17169;SDS011;8700;48.222;16.342;2023-08-24T14:04:57;10.30;;;9.50;;
17169;SDS011;8700;48.222;16.342;2023-08-24T14:08:18;11.82;;;10.65;;
17169;SDS011;8700;48.222;16.342;2023-08-24T14:11:39;10.50;;;9.50;;
17169;SDS011;8700;48.222;16.342;2023-08-24T14:15:00;10.70;;;9.93;;
17169;SDS011;8700;48.222;16.342;2023-08-24T14:18:22;11.63;;;10.52;;
17169;SDS011;8700;48.222;16.342;2023-08-24T14:21:44;9.30;;;8.68;;
17169;SDS011;8700;48.222;16.342;2023-08-24T14:25:06;11.02;;;10.18;;
17169;SDS011;8700;48.222;16.342;2023-08-24T14:28:46;11.05;;;10.10;;
17169;SDS011;8700;48.222;16.342;2023-08-24T14:32:08;9.65;;;8.93;;
17169;SDS011;8700;48.222;16.342;2023-08-24T14:35:29;10.82;;;9.70;;
17169;SDS011;8700;48.222;16.342;2023-08-24T14:38:53;10.40;;;9.70;;
17169;SDS011;8700;48.222;16.342;2023-08-24T14:42:14;10.63;;;9.70;;
17169;SDS011;8700;48.222;16.342;2023-08-24T14:45:35;18.02;;;11.55;;
17169;SDS011;8700;48.222;16.342;2023-08-24T14:48:57;13.00;;;11.88;;
17169;SDS011;8700;48.222;16.342;2023-08-24T14:52:18;16.75;;;12.05;;
17169;SDS011;8700;48.222;16.342;2023-08-24T14:55:41;10.30;;;9.23;;
17169;SDS011;8700;48.222;16.342;2023-08-24T14:59:02;10.65;;;9.18;;
17169;SDS011;8700;48.222;16.342;2023-08-24T15:02:24;10.18;;;9.38;;
17169;SDS011;8700;48.222;16.342;2023-08-24T15:05:46;9.00;;;8.30;;
17169;SDS011;8700;48.222;16.342;2023-08-24T15:09:16;8.60;;;8.00;;
17169;SDS011;8700;48.222;16.342;2023-08-24T15:12:38;11.63;;;10.73;;
17169;SDS011;8700;48.222;16.342;2023-08-24T15:15:59;9.68;;;8.75;;
17169;SDS011;8700;48.222;16.342;2023-08-24T15:19:21;10.93;;;9.90;;
17169;SDS011;8700;48.222;16.342;2023-08-24T15:22:42;11.27;;;10.35;;
17169;SDS011;8700;48.222;16.342;2023-08-24T15:26:03;9.30;;;8.45;;
17169;SDS011;8700;48.222;16.342;2023-08-24T15:29:25;11.23;;;10.32;;
17169;SDS011;8700;48.222;16.342;2023-08-24T15:32:47;10.20;;;9.27;;
17169;SDS011;8700;48.222;16.342;2023-08-24T15:36:08;10.70;;;9.82;;
17169;SDS011;8700;48.222;16.342;2023-08-24T15:39:29;13.10;;;9.65;;
17169;SDS011;8700;48.222;16.342;2023-08-24T15:42:56;10.63;;;9.75;;
17169;SDS011;8700;48.222;16.342;2023-08-24T15:46:19;9.35;;;8.68;;
17169;SDS011;8700;48.222;16.342;2023-08-24T15:49:40;10.80;;;9.90;;
17169;SDS011;8700;48.222;16.342;2023-08-24T15:53:02;9.77;;;8.98;;
17169;SDS011;8700;48.222;16.342;2023-08-24T15:56:25;10.93;;;9.90;;
17169;SDS011;8700;48.222;16.342;2023-08-24T15:59:46;10.35;;;9.60;;
17169;SDS011;8700;48.222;16.342;2023-08-24T16:03:09;10.15;;;9.38;;
17169;SDS011;8700;48.222;16.342;2023-08-24T16:06:30;14.68;;;13.55;;
17169;SDS011;8700;48.222;16.342;2023-08-24T16:09:52;11.43;;;10.43;;
17169;SDS011;8700;48.222;16.342;2023-08-24T16:13:13;12.43;;;11.45;;
17169;SDS011;8700;48.222;16.342;2023-08-24T16:16:34;11.93;;;10.93;;
17169;SDS011;8700;48.222;16.342;2023-08-24T16:19:57;11.73;;;10.85;;
17169;SDS011;8700;48.222;16.342;2023-08-24T16:23:18;12.13;;;11.05;;
17169;SDS011;8700;48.222;16.342;2023-08-24T16:26:39;11.63;;;10.65;;
17169;SDS011;8700;48.222;16.342;2023-08-24T16:30:00;11.27;;;10.48;;
17169;SDS011;8700;48.222;16.342;2023-08-24T16:33:22;10.93;;;10.15;;
17169;SDS011;8700;48.222;16.342;2023-08-24T16:36:45;12.88;;;11.90;;
17169;SDS011;8700;48.222;16.342;2023-08-24T16:40:07;11.85;;;10.63;;
17169;SDS011;8700;48.222;16.342;2023-08-24T16:43:28;11.50;;;10.57;;
17169;SDS011;8700;48.222;16.342;2023-08-24T16:46:49;12.07;;;11.07;;
17169;SDS011;8700;48.222;16.342;2023-08-24T16:50:11;11.73;;;10.90;;
17169;SDS011;8700;48.222;16.342;2023-08-24T16:53:33;12.18;;;11.23;;
17169;SDS011;8700;48.222;16.342;2023-08-24T16:56:55;12.77;;;11.88;;
17169;SDS011;8700;48.222;16.342;2023-08-24T17:00:17;12.77;;;11.73;;
17169;SDS011;8700;48.222;16.342;2023-08-24T17:03:38;11.77;;;10.97;;
17169;SDS011;8700;48.222;16.342;2023-08-24T17:07:00;13.27;;;11.95;;
17169;SDS011;8700;48.222;16.342;2023-08-24T17:10:23;12.40;;;11.40;;
17169;SDS011;8700;48.222;16.342;2023-08-24T17:13:44;12.52;;;11.45;;
17169;SDS011;8700;48.222;16.342;2023-08-24T17:17:05;13.20;;;12.20;;
17169;SDS011;8700;48.222;16.342;2023-08-24T17:20:27;12.10;;;11.20;;
17169;SDS011;8700;48.222;16.342;2023-08-24T17:23:48;12.90;;;11.90;;
17169;SDS011;8700;48.222;16.342;2023-08-24T17:27:11;12.15;;;11.15;;
17169;SDS011;8700;48.222;16.342;2023-08-24T17:30:32;12.27;;;11.38;;
17169;SDS011;8700;48.222;16.342;2023-08-24T17:33:53;12.15;;;11.18;;
17169;SDS011;8700;48.222;16.342;2023-08-24T17:37:15;12.93;;;11.90;;
17169;SDS011;8700;48.222;16.342;2023-08-24T17:40:36;12.73;;;11.82;;
17169;SDS011;8700;48.222;16.342;2023-08-24T17:43:59;13.77;;;12.35;;
17169;SDS011;8700;48.222;16.342;2023-08-24T17:47:23;12.93;;;11.65;;
17169;SDS011;8700;48.222;16.342;2023-08-24T17:50:50;12.93;;;11.75;;
17169;SDS011;8700;48.222;16.342;2023-08-24T17:54:12;13.13;;;12.02;;
17169;SDS011;8700;48.222;16.342;2023-08-24T17:57:33;12.93;;;12.02;;
17169;SDS011;8700;48.222;16.342;2023-08-24T18:00:56;13.25;;;12.30;;
17169;SDS011;8700;48.222;16.342;2023-08-24T18:04:20;13.30;;;12.35;;
17169;SDS011;8700;48.222;16.342;2023-08-24T18:07:41;12.32;;;11.43;;
17169;SDS011;8700;48.222;16.342;2023-08-24T18:11:03;13.20;;;12.40;;
17169;SDS011;8700;48.222;16.342;2023-08-24T18:14:24;12.32;;;11.48;;
17169;SDS011;8700;48.222;16.342;2023-08-24T18:17:47;12.55;;;11.68;;
17169;SDS011;8700;48.222;16.342;2023-08-24T18:21:08;13.25;;;12.15;;
17169;SDS011;8700;48.222;16.342;2023-08-24T18:24:29;12.43;;;11.32;;
17169;SDS011;8700;48.222;16.342;2023-08-24T18:27:51;13.57;;;12.48;;
17169;SDS011;8700;48.222;16.342;2023-08-24T18:31:12;13.25;;;12.25;;
17169;SDS011;8700;48.222;16.342;2023-08-24T18:34:35;13.57;;;12.48;;
17169;SDS011;8700;48.222;16.342;2023-08-24T18:37:56;13.48;;;12.32;;
17169;SDS011;8700;48.222;16.342;2023-08-24T18:41:17;13.35;;;12.25;;
17169;SDS011;8700;48.222;16.342;2023-08-24T18:44:39;13.45;;;12.35;;
17169;SDS011;8700;48.222;16.342;2023-08-24T18:48:00;13.98;;;12.68;;
17169;SDS011;8700;48.222;16.342;2023-08-24T18:51:23;13.38;;;12.15;;
17169;SDS011;8700;48.222;16.342;2023-08-24T18:54:45;13.60;;;12.50;;
17169;SDS011;8700;48.222;16.342;2023-08-24T18:58:06;13.30;;;12.40;;
17169;SDS011;8700;48.222;16.342;2023-08-24T19:01:27;13.18;;;12.10;;
17169;SDS011;8700;48.222;16.342;2023-08-24T19:04:49;13.20;;;11.95;;
17169;SDS011;8700;48.222;16.342;2023-08-24T19:08:12;13.15;;;12.25;;
17169;SDS011;8700;48.222;16.342;2023-08-24T19:11:36;13.35;;;12.35;;
17169;SDS011;8700;48.222;16.342;2023-08-24T19:14:59;14.85;;;13.65;;
17169;SDS011;8700;48.222;16.342;2023-08-24T19:18:20;13.48;;;12.32;;
17169;SDS011;8700;48.222;16.342;2023-08-24T19:21:41;18.05;;;12.27;;
17169;SDS011;8700;48.222;16.342;2023-08-24T19:25:04;12.32;;;11.40;;
17169;SDS011;8700;48.222;16.342;2023-08-24T19:28:27;12.55;;;11.50;;
17169;SDS011;8700;48.222;16.342;2023-08-24T19:31:48;12.43;;;11.23;;
17169;SDS011;8700;48.222;16.342;2023-08-24T19:35:09;13.77;;;12.68;;
17169;SDS011;8700;48.222;16.342;2023-08-24T19:38:31;12.77;;;11.73;;
17169;SDS011;8700;48.222;16.342;2023-08-24T19:41:53;13.00;;;11.70;;
17169;SDS011;8700;48.222;16.342;2023-08-24T19:45:14;21.45;;;12.98;;
17169;SDS011;8700;48.222;16.342;2023-08-24T19:48:36;22.00;;;12.68;;